Time;durP1;ratioP1;P1;durP2;ratioP2;P2;SDS_P1;SDS_P2;PMS_P1;PMS_P2;Temp;Humidity;BMP_temperature;BMP_pressure;BME280_temperature;BME280_humidity;BME280_pressure;Samples;Min_cycle;Max_cycle;Signal;HPM_P1;HPM_P2
2021/07/28 00:01:22;;;;;;;12.23;9.50;;;;;;;17.00;76.82;100949.97;5060306;28;20279;-67
2021/07/28 00:03:48;;;;;;;17.95;12.13;;;;;;;16.68;77.99;100947.63;5043153;28;20044;-67
2021/07/28 00:06:20;;;;;;;16.48;11.07;;;;;;;16.62;78.93;100945.34;5042731;28;20039;-67
2021/07/28 00:08:46;;;;;;;15.40;11.32;;;;;;;17.05;76.44;100945.25;5093354;28;20100;-67
2021/07/28 00:11:12;;;;;;;14.13;11.20;;;;;;;17.12;76.53;100935.09;5093091;28;20033;-67
2021/07/28 00:13:38;;;;;;;18.45;11.20;;;;;;;17.31;77.16;100931.22;5076084;28;20047;-67
2021/07/28 00:16:09;;;;;;;14.80;12.63;;;;;;;16.80;77.57;100931.91;5076516;28;20088;-67
2021/07/28 00:24:02;;;;;;;15.32;11.40;;;;;;;17.02;77.96;100929.56;5061007;28;20040;-67
2021/07/28 00:26:27;;;;;;;17.02;13.05;;;;;;;16.82;77.75;100928.19;5060317;28;20063;-67
2021/07/28 00:28:53;;;;;;;24.52;13.95;;;;;;;16.35;79.96;100931.28;5093142;28;20331;-67
2021/07/28 00:31:18;;;;;;;19.08;12.55;;;;;;;16.49;80.01;100933.88;5060072;28;20120;-67
2021/07/28 00:33:44;;;;;;;18.35;11.10;;;;;;;17.27;77.14;100930.59;5059369;28;20094;-67
2021/07/28 00:36:09;;;;;;;23.35;13.20;;;;;;;16.57;79.96;100926.31;5060240;28;20048;-67
2021/07/28 00:38:35;;;;;;;25.73;14.63;;;;;;;16.41;79.81;100925.59;5059946;28;20029;-67
2021/07/28 00:41:00;;;;;;;20.85;13.80;;;;;;;16.21;81.29;100922.44;5060443;28;20029;-67
2021/07/28 00:43:25;;;;;;;17.15;12.73;;;;;;;16.65;78.87;100918.72;5060267;28;20032;-67
2021/07/28 00:45:51;;;;;;;14.00;11.43;;;;;;;16.93;79.86;100926.69;5092903;28;20057;-67
2021/07/28 00:48:16;;;;;;;18.20;12.27;;;;;;;16.38;79.93;100913.44;5059862;28;20044;-67
2021/07/28 00:50:42;;;;;;;20.63;12.95;;;;;;;16.37;80.12;100910.88;5092760;28;20029;-67
2021/07/28 00:53:14;;;;;;;15.68;9.27;;;;;;;17.18;77.43;100904.75;5042614;28;20040;-67
2021/07/28 00:55:39;;;;;;;18.95;10.18;;;;;;;17.06;78.49;100907.25;5043257;28;20084;-67
2021/07/28 00:58:05;;;;;;;19.02;13.07;;;;;;;16.93;78.33;100910.81;5063954;28;20046;-67
2021/07/28 01:00:30;;;;;;;18.65;12.38;;;;;;;16.77;79.28;100905.66;5029468;28;20031;-67
2021/07/28 01:02:56;;;;;;;14.10;11.05;;;;;;;16.86;78.43;100908.59;5064329;28;20036;-67
2021/07/28 01:05:21;;;;;;;20.30;12.93;;;;;;;16.55;79.30;100901.75;5063532;28;20034;-67
2021/07/28 01:07:46;;;;;;;18.83;13.07;;;;;;;16.36;80.32;100896.81;5096606;28;20094;-67
2021/07/28 01:10:12;;;;;;;14.45;12.30;;;;;;;16.73;79.20;100890.94;5045864;28;20025;-67
2021/07/28 01:12:42;;;;;;;15.32;12.07;;;;;;;16.54;79.73;100894.78;5064444;28;20049;-67
2021/07/28 01:15:09;;;;;;;16.73;11.52;;;;;;;16.60;79.81;100891.72;5064036;28;20041;-67
2021/07/28 01:17:35;;;;;;;21.80;12.57;;;;;;;17.08;77.25;100884.19;5063441;28;20044;-67
2021/07/28 01:20:02;;;;;;;13.68;10.45;;;;;;;16.92;78.51;100885.31;5046487;28;20039;-67
2021/07/28 01:22:28;;;;;;;21.15;11.95;;;;;;;16.69;79.84;100887.66;5045878;28;20275;-67
2021/07/28 01:24:53;;;;;;;18.60;13.40;;;;;;;16.43;80.35;100886.72;5096378;28;20033;-67
2021/07/28 01:27:19;;;;;;;18.17;12.07;;;;;;;16.61;79.57;100889.97;5062190;28;20279;-67
2021/07/28 01:29:44;;;;;;;20.60;13.38;;;;;;;16.42;80.51;100892.94;5062715;28;20029;-67
2021/07/28 01:32:09;;;;;;;22.75;13.45;;;;;;;16.51;80.15;100889.69;5063569;28;20312;-67
2021/07/28 01:34:35;;;;;;;21.30;14.45;;;;;;;16.07;82.18;100881.03;5078561;28;20071;-67
2021/07/28 01:37:00;;;;;;;14.77;11.70;;;;;;;16.65;80.65;100884.34;5029300;28;20100;-67
2021/07/28 01:39:26;;;;;;;19.75;14.55;;;;;;;16.64;79.29;100877.34;5045335;28;20029;-67
2021/07/28 01:42:00;;;;;;;21.30;14.75;;;;;;;16.73;79.11;100878.56;5063648;28;20029;-67
2021/07/28 01:44:26;;;;;;;20.05;13.32;;;;;;;16.79;79.71;100885.22;5062876;28;20367;-67
2021/07/28 01:46:52;;;;;;;21.92;13.35;;;;;;;16.48;80.39;100880.19;5063562;28;20096;-67
2021/07/28 01:49:18;;;;;;;21.15;15.23;;;;;;;16.37;80.73;100866.81;5078509;28;20037;-67
2021/07/28 01:51:44;;;;;;;20.88;13.15;;;;;;;16.61;79.78;100867.00;5078704;28;20036;-67
2021/07/28 01:54:09;;;;;;;17.65;14.00;;;;;;;16.57;79.53;100864.66;5062106;28;20033;-67
2021/07/28 01:56:42;;;;;;;22.52;15.40;;;;;;;16.47;80.67;100865.25;5062630;28;20039;-67
2021/07/28 01:59:15;;;;;;;21.77;15.05;;;;;;;16.15;81.92;100869.13;5046623;28;20048;-67
2021/07/28 02:01:40;;;;;;;15.13;12.30;;;;;;;16.84;79.29;100873.44;5062328;28;20211;-67
2021/07/28 02:04:05;;;;;;;22.60;14.88;;;;;;;16.86;78.90;100868.03;5063555;28;20033;-67
2021/07/28 02:06:32;;;;;;;20.60;15.38;;;;;;;16.63;79.72;100858.97;5028182;28;20203;-67
2021/07/28 02:08:57;;;;;;;24.30;16.58;;;;;;;16.14;81.93;100862.16;5078107;28;20027;-67
2021/07/28 02:11:23;;;;;;;14.02;11.45;;;;;;;16.67;80.12;100858.66;5062716;28;20092;-67
2021/07/28 02:13:48;;;;;;;22.20;15.10;;;;;;;16.65;79.88;100865.84;5061852;28;20092;-67
2021/07/28 02:16:13;;;;;;;27.95;16.02;;;;;;;16.10;81.91;100870.28;5062625;28;20029;-67
2021/07/28 02:18:39;;;;;;;20.00;15.00;;;;;;;16.40;81.58;100866.59;5061485;28;20029;-67
2021/07/28 02:21:05;;;;;;;17.83;14.20;;;;;;;16.69;80.00;100869.13;5063206;28;20272;-68
2021/07/28 02:23:30;;;;;;;21.90;14.95;;;;;;;16.72;80.35;100863.66;5062200;28;20045;-68
2021/07/28 02:25:55;;;;;;;19.90;12.52;;;;;;;16.91;79.73;100863.31;5095135;28;20031;-68
2021/07/28 02:28:21;;;;;;;18.42;13.45;;;;;;;16.94;79.57;100863.09;5060923;28;20209;-68
2021/07/28 02:30:46;;;;;;;19.55;14.30;;;;;;;17.00;79.46;100861.84;5062448;28;20044;-68
2021/07/28 02:33:12;;;;;;;11.52;10.25;;;;;;;17.23;78.20;100862.94;5062125;28;20403;-68
2021/07/28 02:35:37;;;;;;;20.35;14.57;;;;;;;16.82;80.39;100858.59;5062214;28;20055;-68
2021/07/28 02:38:03;;;;;;;24.88;16.27;;;;;;;17.16;78.48;100864.31;5062646;28;20029;-68
2021/07/28 02:40:28;;;;;;;30.08;17.55;;;;;;;16.88;79.97;100859.06;5062284;28;20037;-67
2021/07/28 02:42:53;;;;;;;16.55;14.05;;;;;;;17.52;76.98;100858.28;5062339;28;20320;-67
2021/07/28 02:45:19;;;;;;;17.67;13.80;;;;;;;18.10;74.81;100858.63;5061772;28;20251;-67
2021/07/28 02:47:44;;;;;;;23.35;15.63;;;;;;;17.35;77.80;100856.78;5044567;28;20258;-67
2021/07/28 02:50:10;;;;;;;24.25;16.25;;;;;;;17.16;79.00;100864.31;5061057;28;20056;-67
2021/07/28 02:52:36;;;;;;;19.80;14.13;;;;;;;17.30;78.14;100850.09;5043962;28;20055;-67
2021/07/28 02:55:07;;;;;;;23.02;17.70;;;;;;;16.93;79.71;100850.81;5044268;28;20059;-67
2021/07/28 02:57:36;;;;;;;13.50;12.02;;;;;;;17.77;76.14;100852.13;5060432;28;20044;-67
2021/07/28 03:00:05;;;;;;;17.02;11.43;;;;;;;18.09;74.90;100862.22;5094872;28;20098;-67
2021/07/28 03:02:30;;;;;;;16.25;12.07;;;;;;;17.69;76.54;100854.44;5093753;28;20059;-67
2021/07/28 03:04:56;;;;;;;22.35;15.20;;;;;;;17.32;78.02;100851.72;5094514;28;20348;-67
2021/07/28 03:07:21;;;;;;;21.08;15.07;;;;;;;18.02;75.30;100851.22;5060279;28;20288;-67
2021/07/28 03:09:47;;;;;;;25.65;15.82;;;;;;;17.70;76.19;100848.19;5061834;28;20037;-67
2021/07/28 03:12:12;;;;;;;18.15;13.63;;;;;;;17.30;77.67;100845.69;5061360;28;20088;-67
2021/07/28 03:14:37;;;;;;;24.83;17.35;;;;;;;17.04;79.65;100850.94;5060487;28;20024;-67
2021/07/28 03:17:03;;;;;;;25.15;16.23;;;;;;;17.60;76.89;100847.16;5061558;28;20035;-67
2021/07/28 03:19:28;;;;;;;21.40;17.40;;;;;;;17.60;76.89;100849.78;5092675;28;20074;-67
2021/07/28 03:21:54;;;;;;;20.98;16.10;;;;;;;17.62;76.77;100845.22;5060345;28;20033;-67
2021/07/28 03:24:19;;;;;;;20.27;15.05;;;;;;;17.75;76.74;100847.84;5060147;28;20037;-67
2021/07/28 03:26:45;;;;;;;28.20;15.90;;;;;;;17.54;77.02;100843.13;5060440;28;20074;-67
2021/07/28 03:29:11;;;;;;;22.88;15.13;;;;;;;17.48;77.08;100843.53;5061451;28;20029;-67
2021/07/28 03:31:36;;;;;;;23.08;13.93;;;;;;;17.73;75.93;100840.03;5076799;28;20036;-67
2021/07/28 03:34:02;;;;;;;15.48;12.75;;;;;;;17.87;75.55;100841.72;5061522;28;20043;-67
2021/07/28 03:36:27;;;;;;;22.20;14.18;;;;;;;17.79;75.64;100838.72;5092971;28;20029;-67
2021/07/28 03:38:53;;;;;;;24.30;17.48;;;;;;;17.27;78.15;100836.13;5061364;28;20096;-67
2021/07/28 03:41:18;;;;;;;14.13;11.35;;;;;;;17.69;76.06;100835.91;5060562;28;20032;-67
2021/07/28 03:43:43;;;;;;;24.58;17.58;;;;;;;16.86;79.60;100841.59;5060088;28;20094;-67
2021/07/28 03:46:09;;;;;;;29.45;17.92;;;;;;;16.67;80.78;100834.88;5061104;28;20315;-67
2021/07/28 03:48:34;;;;;;;18.98;14.55;;;;;;;17.20;78.35;100834.88;5060580;28;20096;-67
2021/07/28 03:51:00;;;;;;;18.60;14.27;;;;;;;16.84;79.87;100839.03;5061137;28;20032;-67
2021/07/28 03:53:25;;;;;;;16.00;11.68;;;;;;;17.59;76.45;100834.84;5059300;28;20032;-67
2021/07/28 03:55:51;;;;;;;22.67;16.88;;;;;;;17.14;78.26;100832.66;5059722;28;20086;-67
2021/07/28 03:58:17;;;;;;;23.92;16.83;;;;;;;17.00;78.74;100845.97;5060331;28;20123;-67
2021/07/28 04:00:42;;;;;;;20.08;14.40;;;;;;;17.28;77.95;100834.34;5060057;28;20332;-67
2021/07/28 04:03:08;;;;;;;13.80;12.23;;;;;;;17.23;78.00;100842.59;5093234;28;20319;-67
2021/07/28 04:05:33;;;;;;;23.13;15.38;;;;;;;17.28;77.85;100844.91;5092795;28;20037;-67
2021/07/28 04:07:59;;;;;;;19.23;14.60;;;;;;;17.21;78.31;100848.97;5059658;28;20111;-67
2021/07/28 04:10:24;;;;;;;23.75;15.30;;;;;;;17.69;75.98;100851.78;5059160;28;20324;-67
2021/07/28 04:12:50;;;;;;;13.07;11.82;;;;;;;17.38;77.20;100845.16;5059660;28;20367;-67
2021/07/28 04:15:16;;;;;;;23.30;14.85;;;;;;;17.31;77.86;100839.41;5025725;28;20223;-67
2021/07/28 04:17:41;;;;;;;19.33;15.73;;;;;;;16.89;79.90;100844.03;5059795;28;20348;-67
2021/07/28 04:20:07;;;;;;;21.60;15.57;;;;;;;17.42;77.56;100843.97;5060658;28;20037;-67
2021/07/28 04:22:32;;;;;;;16.23;14.52;;;;;;;17.26;78.16;100845.06;5060188;28;20097;-67
2021/07/28 04:24:57;;;;;;;16.58;14.63;;;;;;;17.26;77.94;100842.41;5059694;28;20185;-67
2021/07/28 04:27:25;;;;;;;19.20;13.90;;;;;;;17.60;76.67;100837.38;5060157;28;20044;-67
2021/07/28 04:29:51;;;;;;;16.85;13.65;;;;;;;17.59;76.29;100842.78;5092231;28;20045;-67
2021/07/28 04:32:16;;;;;;;22.08;15.70;;;;;;;17.15;78.54;100838.78;5056463;28;20029;-67
2021/07/28 04:34:42;;;;;;;20.20;14.38;;;;;;;17.66;76.65;100841.41;5057128;28;20419;-67
2021/07/28 04:37:07;;;;;;;14.57;10.88;;;;;;;18.28;73.76;100847.66;5058620;28;20045;-67
2021/07/28 04:39:33;;;;;;;16.42;12.52;;;;;;;18.07;74.66;100845.59;5090552;28;20052;-67
2021/07/28 04:41:59;;;;;;;12.18;10.48;;;;;;;18.29;73.74;100841.41;5090995;28;20033;-67
2021/07/28 04:44:25;;;;;;;16.42;12.07;;;;;;;18.18;74.57;100852.78;5090160;28;20055;-67
2021/07/28 04:46:50;;;;;;;10.95;9.07;;;;;;;17.99;75.64;100840.00;5057410;28;20064;-67
2021/07/28 04:49:16;;;;;;;13.43;11.80;;;;;;;18.03;75.00;100842.31;5056803;28;20248;-67
2021/07/28 04:51:41;;;;;;;10.75;9.68;;;;;;;18.46;73.47;100851.59;5055627;28;20142;-67
2021/07/28 04:54:06;;;;;;;14.27;10.90;;;;;;;18.72;72.56;100843.50;5059873;28;20032;-67
2021/07/28 04:56:32;;;;;;;18.30;8.40;;;;;;;19.51;68.83;100836.59;5057357;28;20044;-67
2021/07/28 04:58:57;;;;;;;17.10;11.93;;;;;;;20.14;66.68;100844.06;5058865;28;20044;-67
2021/07/28 05:01:23;;;;;;;10.30;7.13;;;;;;;19.86;67.19;100845.41;5059810;28;20033;-67
2021/07/28 05:03:48;;;;;;;9.95;8.05;;;;;;;19.66;67.96;100846.97;5058944;28;20028;-67
2021/07/28 05:06:14;;;;;;;12.25;10.43;;;;;;;19.36;69.23;100846.59;5059532;28;20116;-67
2021/07/28 05:08:39;;;;;;;12.20;10.18;;;;;;;18.64;71.59;100843.25;5060082;28;20273;-67
2021/07/28 05:11:05;;;;;;;13.13;10.45;;;;;;;18.39;73.11;100837.09;5060068;28;20037;-67
2021/07/28 05:13:30;;;;;;;12.55;8.43;;;;;;;19.38;68.75;100841.16;5059323;28;20055;-67
2021/07/28 05:15:55;;;;;;;9.82;7.10;;;;;;;19.47;67.88;100835.13;5059076;28;20055;-67
2021/07/28 05:18:24;;;;;;;8.93;7.20;;;;;;;18.50;72.19;100845.13;5059539;28;20032;-67
2021/07/28 05:20:49;;;;;;;9.95;7.43;;;;;;;18.82;70.34;100838.41;5059140;28;20029;-67
2021/07/28 05:23:15;;;;;;;5.88;5.13;;;;;;;19.44;68.56;100839.84;5058833;28;20051;-67
2021/07/28 05:25:40;;;;;;;6.47;4.97;;;;;;;19.70;67.21;100843.09;5058934;28;20021;-67
2021/07/28 05:28:06;;;;;;;10.45;6.45;;;;;;;19.36;68.60;100837.78;5059205;28;20045;-67
2021/07/28 05:30:32;;;;;;;9.00;6.03;;;;;;;19.51;67.98;100835.75;5041430;28;20036;-67
2021/07/28 05:32:57;;;;;;;9.50;7.30;;;;;;;19.40;67.86;100841.06;5040910;28;20243;-67
2021/07/28 05:35:23;;;;;;;10.95;8.15;;;;;;;18.87;70.05;100834.44;5052522;28;20045;-67
2021/07/28 05:37:48;;;;;;;15.15;7.45;;;;;;;19.48;67.91;100836.84;5036936;28;20240;-67
2021/07/28 05:40:14;;;;;;;12.40;6.57;;;;;;;19.46;68.14;100835.25;5037646;28;20232;-67
2021/07/28 05:42:39;;;;;;;23.10;6.18;;;;;;;20.11;65.79;100838.97;5038294;28;20033;-67
2021/07/28 05:45:05;;;;;;;15.23;6.88;;;;;;;21.46;61.65;100832.19;5041637;28;20037;-67
2021/07/28 05:47:30;;;;;;;7.32;3.97;;;;;;;21.71;61.18;100838.06;5041761;28;20032;-68
2021/07/28 05:49:58;;;;;;;12.38;5.07;;;;;;;23.24;57.32;100833.13;5060884;28;20056;-68
2021/07/28 05:52:23;;;;;;;5.82;4.90;;;;;;;22.59;59.55;100833.72;5059133;28;20356;-68
2021/07/28 05:54:49;;;;;;;15.27;5.40;;;;;;;22.92;57.91;100831.59;5061181;28;20069;-68
2021/07/28 05:57:14;;;;;;;8.85;4.18;;;;;;;22.71;58.94;100840.63;5041800;28;20024;-68
2021/07/28 05:59:40;;;;;;;9.27;3.05;;;;;;;22.12;60.44;100838.84;5065448;28;20059;-68
2021/07/28 06:02:05;;;;;;;3.95;3.22;;;;;;;21.11;63.61;100837.88;5054322;28;20029;-69
2021/07/28 06:04:30;;;;;;;4.10;2.60;;;;;;;21.57;61.87;100826.75;5052954;28;20037;-69
2021/07/28 06:06:56;;;;;;;3.55;3.03;;;;;;;21.58;61.84;100827.63;5052857;28;20324;-68
2021/07/28 06:09:21;;;;;;;5.78;3.55;;;;;;;21.79;60.68;100833.75;5050715;28;20044;-68
2021/07/28 06:11:47;;;;;;;2.55;2.35;;;;;;;21.72;61.36;100837.06;5050340;28;20033;-68
2021/07/28 06:14:12;;;;;;;8.43;4.60;;;;;;;21.04;62.53;100835.72;5051123;28;20101;-68
2021/07/28 06:16:39;;;;;;;3.50;3.13;;;;;;;21.93;60.76;100832.50;5050166;28;20044;-68
2021/07/28 06:19:04;;;;;;;4.72;4.30;;;;;;;21.42;62.04;100828.91;5051465;28;20032;-68
2021/07/28 06:21:29;;;;;;;10.88;2.90;;;;;;;21.70;60.83;100833.69;5082192;28;20363;-69
2021/07/28 06:23:59;;;;;;;5.78;3.10;;;;;;;21.60;61.15;100833.66;5053156;28;20051;-68
2021/07/28 06:26:24;;;;;;;7.55;3.58;;;;;;;21.88;60.74;100831.22;5050814;28;20037;-69
2021/07/28 06:28:50;;;;;;;12.07;3.40;;;;;;;21.38;61.90;100832.00;5050323;28;20037;-69
2021/07/28 06:31:15;;;;;;;3.70;2.88;;;;;;;21.76;60.55;100828.69;5048325;28;20366;-69
2021/07/28 06:33:41;;;;;;;4.97;3.65;;;;;;;21.27;62.16;100838.25;5053451;28;20036;-69
2021/07/28 06:36:06;;;;;;;4.38;3.67;;;;;;;21.19;62.48;100833.59;5055518;28;20037;-69
2021/07/28 06:38:31;;;;;;;5.47;3.75;;;;;;;21.70;60.79;100844.34;5039274;28;20033;-69
2021/07/28 06:40:57;;;;;;;10.57;2.97;;;;;;;21.91;60.04;100842.47;5056212;28;20029;-69
2021/07/28 06:43:22;;;;;;;3.67;3.28;;;;;;;21.87;60.06;100841.06;5051192;28;20040;-69
2021/07/28 06:45:48;;;;;;;5.97;3.90;;;;;;;21.53;60.93;100843.16;5055898;28;20201;-69
2021/07/28 06:48:13;;;;;;;5.78;2.97;;;;;;;21.83;59.89;100843.16;5053551;28;20055;-69
2021/07/28 06:50:38;;;;;;;7.32;2.95;;;;;;;21.75;60.07;100839.47;5087640;28;20029;-69
2021/07/28 06:53:04;;;;;;;5.38;3.25;;;;;;;21.78;60.11;100839.22;5053768;28;20083;-69
2021/07/28 06:55:29;;;;;;;3.58;3.20;;;;;;;21.52;61.04;100841.47;5038221;28;20031;-69
2021/07/28 06:57:55;;;;;;;5.95;3.53;;;;;;;21.31;61.73;100837.00;5054203;28;20135;-70
2021/07/28 07:00:20;;;;;;;8.15;2.90;;;;;;;21.94;59.57;100841.34;5056265;28;20040;-70
2021/07/28 07:02:46;;;;;;;7.85;3.97;;;;;;;21.10;61.89;100834.34;5056564;28;20033;-70
2021/07/28 07:05:11;;;;;;;4.05;2.95;;;;;;;22.03;59.33;100830.72;5053431;28;20029;-70
2021/07/28 07:07:37;;;;;;;7.13;3.22;;;;;;;21.98;59.15;100830.28;5055530;28;20040;-70
2021/07/28 07:10:08;;;;;;;9.95;3.50;;;;;;;21.29;60.59;100829.13;5054254;28;20064;-70
2021/07/28 07:12:34;;;;;;;11.35;4.35;;;;;;;20.85;62.30;100833.78;5052598;28;20170;-70
2021/07/28 07:14:59;;;;;;;6.03;3.22;;;;;;;22.03;59.29;100828.06;5058959;28;20083;-70
2021/07/28 07:17:24;;;;;;;6.25;2.63;;;;;;;22.24;58.28;100827.09;5056934;28;20047;-70
2021/07/28 07:19:50;;;;;;;13.48;3.97;;;;;;;21.64;59.87;100827.09;5065007;28;20048;-70
2021/07/28 07:22:15;;;;;;;4.88;2.90;;;;;;;21.96;59.23;100834.06;5063358;28;20045;-70
2021/07/28 07:24:41;;;;;;;7.53;2.90;;;;;;;21.99;58.86;100826.66;5062646;28;20370;-70
2021/07/28 07:27:07;;;;;;;6.68;3.25;;;;;;;21.31;60.74;100828.19;5062287;28;20052;-70
2021/07/28 07:29:33;;;;;;;6.07;3.08;;;;;;;21.77;59.78;100843.66;5060682;28;20492;-70
2021/07/28 07:32:00;;;;;;;5.93;4.13;;;;;;;21.21;61.20;100839.63;5045324;28;20041;-70
2021/07/28 07:34:25;;;;;;;9.32;3.15;;;;;;;21.82;59.46;100836.13;5060891;28;20110;-70
2021/07/28 07:36:51;;;;;;;5.40;2.78;;;;;;;21.76;59.37;100839.34;5059308;28;20220;-70
2021/07/28 07:39:16;;;;;;;7.25;3.30;;;;;;;21.44;60.65;100837.63;5059269;28;20041;-70
2021/07/28 07:41:41;;;;;;;13.75;3.42;;;;;;;21.66;60.04;100839.28;5066027;28;20032;-70
2021/07/28 07:44:07;;;;;;;5.38;3.67;;;;;;;21.08;61.74;100839.81;5056354;28;20146;-70
2021/07/28 07:46:32;;;;;;;5.53;2.97;;;;;;;20.91;61.03;100840.41;5057524;28;20041;-70
2021/07/28 07:48:58;;;;;;;7.90;2.72;;;;;;;21.16;61.05;100822.34;5058290;28;20082;-70
2021/07/28 07:51:24;;;;;;;6.85;3.03;;;;;;;21.29;60.55;100833.63;5057115;28;20052;-69
2021/07/28 07:53:50;;;;;;;6.65;2.95;;;;;;;21.73;59.48;100836.09;5090050;28;20037;-69
2021/07/28 07:56:15;;;;;;;4.70;2.28;;;;;;;21.76;59.20;100838.50;5055648;28;20143;-69
2021/07/28 07:58:41;;;;;;;8.40;2.75;;;;;;;21.69;59.01;100840.03;5038198;28;20048;-70
2021/07/28 08:01:09;;;;;;;7.55;3.60;;;;;;;21.15;60.68;100839.28;5057484;28;20040;-70
2021/07/28 08:03:36;;;;;;;5.63;2.92;;;;;;;21.22;60.43;100832.47;5055514;28;20025;-70
2021/07/28 08:06:01;;;;;;;10.60;3.05;;;;;;;21.24;60.26;100839.34;5045121;28;20028;-70
2021/07/28 08:08:26;;;;;;;9.55;3.30;;;;;;;21.06;60.72;100841.75;5055474;28;20036;-69
2021/07/28 08:10:55;;;;;;;6.35;2.72;;;;;;;21.44;59.62;100834.13;5065216;28;20033;-69
2021/07/28 08:13:20;;;;;;;5.35;2.85;;;;;;;21.25;60.39;100843.69;5040794;28;20025;-70
2021/07/28 08:15:46;;;;;;;2.85;2.22;;;;;;;21.64;58.97;100846.56;5052059;28;20143;-69
2021/07/28 08:18:11;;;;;;;16.70;2.95;;;;;;;21.39;59.69;100842.53;5053360;28;20048;-69
2021/07/28 08:20:37;;;;;;;5.93;3.03;;;;;;;21.20;60.45;100840.59;5055965;28;20197;-69
2021/07/28 08:23:03;;;;;;;12.18;2.72;;;;;;;21.17;60.35;100842.66;5090647;28;20104;-69
2021/07/28 08:25:28;;;;;;;4.95;2.97;;;;;;;21.35;59.90;100846.41;5057642;28;20143;-69
2021/07/28 08:27:54;;;;;;;5.82;2.95;;;;;;;21.45;59.47;100843.84;5056442;28;20049;-69
2021/07/28 08:30:19;;;;;;;5.68;2.88;;;;;;;21.25;60.12;100850.84;5055503;28;20336;-69
2021/07/28 08:32:45;;;;;;;5.75;3.00;;;;;;;21.36;59.69;100848.09;5057551;28;20100;-69
2021/07/28 08:35:10;;;;;;;11.68;2.90;;;;;;;20.47;61.88;100850.25;5051086;28;20412;-70
2021/07/28 08:37:40;;;;;;;16.42;4.05;;;;;;;21.49;59.76;100849.75;5049626;28;20224;-69
2021/07/28 08:40:10;;;;;;;12.35;3.80;;;;;;;20.98;61.60;100857.53;5035001;28;20041;-70
2021/07/28 08:42:36;;;;;;;17.00;3.97;;;;;;;20.72;61.63;100851.75;5055545;28;20037;-71
2021/07/28 08:45:02;;;;;;;14.63;4.00;;;;;;;19.76;65.69;100853.28;5038881;28;20028;-70
2021/07/28 08:47:27;;;;;;;9.35;3.85;;;;;;;20.77;63.11;100857.50;5036905;28;20031;-68
2021/07/28 08:49:52;;;;;;;9.10;3.47;;;;;;;20.17;65.03;100846.44;5049419;28;20043;-68
2021/07/28 08:52:19;;;;;;;14.38;4.03;;;;;;;20.12;65.63;100846.84;5055365;28;20051;-69
2021/07/28 08:54:44;;;;;;;6.40;3.80;;;;;;;20.80;63.07;100851.94;5038481;28;20187;-69
2021/07/28 08:57:11;;;;;;;11.02;3.90;;;;;;;20.48;63.25;100841.28;5053080;28;20238;-68
2021/07/28 08:59:36;;;;;;;8.85;3.60;;;;;;;20.77;62.79;100851.34;5035021;28;20032;-68
2021/07/28 09:02:03;;;;;;;11.23;3.80;;;;;;;21.28;60.72;100848.78;5052917;28;20063;-67
2021/07/28 09:04:28;;;;;;;10.15;4.18;;;;;;;20.57;63.43;100851.16;5048581;28;20063;-67
2021/07/28 09:06:54;;;;;;;10.85;3.60;;;;;;;21.01;61.51;100843.13;5050257;28;20029;-68
2021/07/28 09:09:20;;;;;;;5.43;2.03;;;;;;;21.91;59.45;100842.47;5055668;28;20044;-68
2021/07/28 09:11:55;;;;;;;9.25;3.70;;;;;;;21.04;62.27;100850.84;5038200;28;20407;-68
2021/07/28 09:14:23;;;;;;;4.85;2.67;;;;;;;21.66;59.82;100851.78;5052667;28;20071;-68
2021/07/28 09:16:49;;;;;;;6.47;3.37;;;;;;;21.44;60.18;100861.59;5053452;28;20052;-68
2021/07/28 09:19:14;;;;;;;18.45;3.28;;;;;;;21.65;59.27;100850.09;5059133;28;20251;-68
2021/07/28 09:21:40;;;;;;;4.75;2.67;;;;;;;21.76;58.57;100854.50;5042755;28;20128;-68
2021/07/28 09:24:13;;;;;;;10.63;2.80;;;;;;;21.62;59.20;100863.69;5059735;28;20058;-68
2021/07/28 09:26:47;;;;;;;6.38;3.10;;;;;;;21.40;59.76;100856.69;5061635;28;20020;-68
2021/07/28 09:29:18;;;;;;;12.05;2.88;;;;;;;21.40;59.73;100854.00;5059603;28;20095;-68
2021/07/28 09:31:44;;;;;;;7.20;3.60;;;;;;;21.52;59.14;100858.31;5061171;28;20090;-68
2021/07/28 09:34:22;;;;;;;2.10;1.90;;;;;;;21.46;59.22;100857.00;5059524;28;20028;-68
2021/07/28 09:36:48;;;;;;;10.55;4.18;;;;;;;20.70;61.29;100857.22;5058105;28;20041;-68
2021/07/28 09:39:25;;;;;;;9.55;4.25;;;;;;;21.37;59.49;100856.94;5059039;28;20029;-68
2021/07/28 09:41:53;;;;;;;13.38;4.00;;;;;;;21.06;60.43;100854.22;5058889;28;20036;-68
2021/07/28 09:44:25;;;;;;;7.95;3.38;;;;;;;21.75;58.14;100852.78;5059444;28;20040;-68
2021/07/28 09:47:08;;;;;;;7.15;3.30;;;;;;;22.01;57.48;100858.47;5058918;28;20056;-68
2021/07/28 09:49:33;;;;;;;12.88;4.35;;;;;;;21.64;58.84;100857.22;5061716;28;20332;-68
2021/07/28 09:51:59;;;;;;;7.68;3.85;;;;;;;22.01;57.25;100854.00;5061254;28;20031;-68
2021/07/28 09:54:29;;;;;;;4.75;3.10;;;;;;;22.39;56.29;100856.91;5060840;28;20324;-68
2021/07/28 09:56:55;;;;;;;5.53;3.25;;;;;;;21.87;57.87;100858.88;5062687;28;20044;-68
2021/07/28 09:59:22;;;;;;;5.15;2.88;;;;;;;22.23;56.54;100863.59;5060440;28;20021;-68
2021/07/28 10:01:47;;;;;;;4.93;2.85;;;;;;;22.76;55.03;100854.41;5062282;28;20201;-68
2021/07/28 10:04:14;;;;;;;7.32;2.90;;;;;;;21.90;57.48;100859.44;5060658;28;20040;-68
2021/07/28 10:06:41;;;;;;;5.15;2.75;;;;;;;21.78;58.00;100860.53;5061430;28;20036;-68
2021/07/28 10:09:11;;;;;;;6.25;2.83;;;;;;;21.77;57.89;100846.34;5094040;28;20391;-68
2021/07/28 10:11:37;;;;;;;4.43;3.08;;;;;;;22.16;56.82;100850.97;5061207;28;20121;-68
2021/07/28 10:14:03;;;;;;;12.98;4.03;;;;;;;22.05;57.39;100843.91;5061768;28;20032;-68
2021/07/28 10:16:30;;;;;;;6.30;3.22;;;;;;;21.92;58.15;100848.63;5060188;28;20051;-68
2021/07/28 10:18:56;;;;;;;5.68;2.67;;;;;;;21.93;57.58;100839.66;5044320;28;20095;-68
2021/07/28 10:21:22;;;;;;;6.32;2.65;;;;;;;22.18;56.58;100839.16;5059751;28;20043;-68
2021/07/28 10:23:47;;;;;;;10.82;2.78;;;;;;;22.02;57.25;100857.50;5019911;28;20025;-67
2021/07/28 10:26:13;;;;;;;8.70;3.05;;;;;;;21.98;57.63;100842.78;5055287;28;20064;-68
2021/07/28 10:28:48;;;;;;;25.80;4.00;;;;;;;21.92;57.68;100846.84;5056392;28;20021;-66
2021/07/28 10:31:17;;;;;;;7.53;2.80;;;;;;;21.99;57.40;100853.31;5038637;28;20037;-67
2021/07/28 10:33:56;;;;;;;8.95;2.58;;;;;;;21.47;58.52;100837.41;5056958;28;20108;-67
2021/07/28 10:36:47;;;;;;;3.42;1.83;;;;;;;21.48;58.28;100840.91;5086257;28;20079;-67
2021/07/28 10:39:14;;;;;;;6.30;2.10;;;;;;;21.92;56.83;100846.84;5041670;28;20045;-67
2021/07/28 10:41:41;;;;;;;5.43;2.42;;;;;;;21.85;57.48;100843.03;5039842;28;20351;-67
2021/07/28 10:44:09;;;;;;;7.30;2.72;;;;;;;22.13;56.30;100853.88;5059062;28;20041;-67
2021/07/28 10:46:53;;;;;;;7.97;2.92;;;;;;;21.84;56.99;100850.16;5055607;28;20324;-67
2021/07/28 10:49:37;;;;;;;4.68;2.40;;;;;;;22.02;56.49;100852.19;5053817;28;20082;-67
2021/07/28 10:52:02;;;;;;;5.07;2.42;;;;;;;22.11;56.23;100845.19;5068489;28;20118;-67
2021/07/28 10:54:47;;;;;;;7.15;3.05;;;;;;;22.19;56.17;100856.00;5057756;28;20308;-68
2021/07/28 10:57:34;;;;;;;4.72;2.20;;;;;;;21.85;57.20;100838.53;5057352;28;20052;-67
2021/07/28 11:00:09;;;;;;;5.45;2.35;;;;;;;22.36;55.84;100852.69;5060667;28;20277;-70
2021/07/28 11:02:53;;;;;;;14.07;3.47;;;;;;;22.09;56.85;100853.31;5055195;28;20338;-73
2021/07/28 11:05:22;;;;;;;5.40;2.80;;;;;;;22.10;56.68;100862.16;5057529;28;20551;-71
2021/07/28 11:08:06;;;;;;;8.30;3.00;;;;;;;21.79;57.71;100849.75;5058532;28;20344;-70
2021/07/28 11:10:37;;;;;;;10.02;2.67;;;;;;;22.24;56.52;100854.59;5058298;28;20082;-72
2021/07/28 11:13:05;;;;;;;9.57;3.00;;;;;;;22.28;56.47;100857.03;5073826;28;20021;-71
2021/07/28 11:15:30;;;;;;;4.32;2.50;;;;;;;22.45;55.70;100859.03;5059516;28;20086;-71
2021/07/28 11:17:56;;;;;;;7.05;2.95;;;;;;;22.46;56.23;100844.69;5066040;28;20032;-71
2021/07/28 11:20:38;;;;;;;11.57;2.95;;;;;;;22.30;57.25;100850.56;5059398;28;20196;-71